首页
METAR-TAF:

METAR-TAF

机场 :

威斯巴登, 德国

纬度: 50-03N, 经度: 008-20E, 海拔: 140米

当前天气观测

该预报发布于42分钟前的19:01 UTC
风速8节,风向西
温度 14°C
湿度 88%
气压 1009 hPa
能见度10公里或以上
少量云层高于1200英尺
多云层高于4900英尺
阴天层高于7000英尺
小雨

METAR: ETOU 151901Z AUTO 26008KT 9999 -RA FEW012 BKN049 OVC070 14/12 A2980 RMK AO2 RAB01 SLP092 $

时间: 21:43 (19:43 UTC)

预报

预报有效从15日的 19点(UTC)到 17日的 01点(UTC)
风速9节,风向西
能見度: 9000
阴天层高于5000英尺
小阵雨
成为
从 16日的 00点(UTC)到 16日的 01点(UTC)
风速9节,风向西转西南
能见度10公里或以上
多云层高于2000英尺
短暂存在
从 16日的 08点(UTC)到 16日的 10点(UTC)
风速10节,风向西南,有时为15节阵风
成为
从 16日的 11点(UTC)到 16日的 12点(UTC)
风速9节,风向西南
能见度10公里或以上
多云层高于3000英尺

TAF: ETOU 1519/1701 26009KT 9000 -SHRA OVC050 QNH2975INS BECMG 1600/1601 24009KT 9999 NSW BKN020 QNH2985INS TEMPO 1608/1610 22010G15KT BECMG 1611/1612 23009KT 9999 BKN030 QNH2989INS TX18/1613Z TN10/1602Z

超过4000个机场的气象观测和天气预报(METAR&TAF报告)。

可查询的气象台以黄色和红色小点在地图上表示。

将鼠标移到小点上方,可查看气象台名称。

然后点击查看天气观测和预报。

如需切换地图:点击带黑十字的绿色按钮放大地图;点击带横线的绿色按钮缩小地图;或者点击绿色箭头查看邻近地区的地图。


METAR-TAF: